sensor_id;sensor_type;location;lat;lon;timestamp;temperature;humidity
11284;DHT22;5698;47.332;11.180;2023-05-16T00:01:58;6.10;99.90
11284;DHT22;5698;47.332;11.180;2023-05-16T00:04:25;6.10;99.90
11284;DHT22;5698;47.332;11.180;2023-05-16T00:06:54;6.20;99.90
11284;DHT22;5698;47.332;11.180;2023-05-16T00:09:21;6.20;99.90
11284;DHT22;5698;47.332;11.180;2023-05-16T00:11:48;6.10;99.90
11284;DHT22;5698;47.332;11.180;2023-05-16T00:14:15;6.10;99.90
11284;DHT22;5698;47.332;11.180;2023-05-16T00:16:43;6.20;99.90
11284;DHT22;5698;47.332;11.180;2023-05-16T00:19:11;6.10;99.90
11284;DHT22;5698;47.332;11.180;2023-05-16T00:21:39;6.10;99.90
11284;DHT22;5698;47.332;11.180;2023-05-16T00:24:08;6.10;99.90
11284;DHT22;5698;47.332;11.180;2023-05-16T00:26:35;6.20;99.90
11284;DHT22;5698;47.332;11.180;2023-05-16T00:29:02;6.10;99.90
11284;DHT22;5698;47.332;11.180;2023-05-16T00:31:29;6.20;99.90
11284;DHT22;5698;47.332;11.180;2023-05-16T00:33:56;6.20;99.90
11284;DHT22;5698;47.332;11.180;2023-05-16T00:36:23;6.10;99.90
11284;DHT22;5698;47.332;11.180;2023-05-16T00:38:50;6.10;99.90
11284;DHT22;5698;47.332;11.180;2023-05-16T00:41:19;6.10;99.90
11284;DHT22;5698;47.332;11.180;2023-05-16T00:43:46;6.00;99.90
11284;DHT22;5698;47.332;11.180;2023-05-16T00:46:13;6.00;99.90
11284;DHT22;5698;47.332;11.180;2023-05-16T00:48:40;5.90;99.90
11284;DHT22;5698;47.332;11.180;2023-05-16T00:51:07;5.90;99.90
11284;DHT22;5698;47.332;11.180;2023-05-16T00:53:35;5.90;99.90
11284;DHT22;5698;47.332;11.180;2023-05-16T00:56:02;6.00;99.90
11284;DHT22;5698;47.332;11.180;2023-05-16T00:58:31;5.90;99.90
11284;DHT22;5698;47.332;11.180;2023-05-16T01:00:59;5.90;99.90
11284;DHT22;5698;47.332;11.180;2023-05-16T01:03:28;6.00;99.90
11284;DHT22;5698;47.332;11.180;2023-05-16T01:05:56;6.00;99.90
11284;DHT22;5698;47.332;11.180;2023-05-16T01:08:23;6.00;99.90
11284;DHT22;5698;47.332;11.180;2023-05-16T01:10:59;6.00;99.90
11284;DHT22;5698;47.332;11.180;2023-05-16T01:13:35;6.00;99.90
11284;DHT22;5698;47.332;11.180;2023-05-16T01:16:10;6.00;99.90
11284;DHT22;5698;47.332;11.180;2023-05-16T01:18:41;6.00;99.90
11284;DHT22;5698;47.332;11.180;2023-05-16T01:21:19;5.90;99.90
11284;DHT22;5698;47.332;11.180;2023-05-16T01:23:51;5.90;99.90
11284;DHT22;5698;47.332;11.180;2023-05-16T01:26:22;5.90;99.90
11284;DHT22;5698;47.332;11.180;2023-05-16T01:28:50;5.90;99.90
11284;DHT22;5698;47.332;11.180;2023-05-16T01:31:17;5.90;99.90
11284;DHT22;5698;47.332;11.180;2023-05-16T01:33:44;6.00;99.90
11284;DHT22;5698;47.332;11.180;2023-05-16T01:36:19;6.00;99.90
11284;DHT22;5698;47.332;11.180;2023-05-16T01:38:57;6.00;99.90
11284;DHT22;5698;47.332;11.180;2023-05-16T01:41:38;6.00;99.90
11284;DHT22;5698;47.332;11.180;2023-05-16T01:44:10;6.00;99.90
11284;DHT22;5698;47.332;11.180;2023-05-16T01:46:43;6.00;99.90
11284;DHT22;5698;47.332;11.180;2023-05-16T01:49:16;5.90;99.90
11284;DHT22;5698;47.332;11.180;2023-05-16T01:51:50;5.90;99.90
11284;DHT22;5698;47.332;11.180;2023-05-16T01:54:18;5.80;99.90
11284;DHT22;5698;47.332;11.180;2023-05-16T01:56:51;5.80;99.90
11284;DHT22;5698;47.332;11.180;2023-05-16T01:59:19;5.80;99.90
11284;DHT22;5698;47.332;11.180;2023-05-16T02:01:47;5.70;99.90
11284;DHT22;5698;47.332;11.180;2023-05-16T02:04:14;5.70;99.90
11284;DHT22;5698;47.332;11.180;2023-05-16T02:06:41;5.70;99.90
11284;DHT22;5698;47.332;11.180;2023-05-16T02:09:08;5.80;99.90
11284;DHT22;5698;47.332;11.180;2023-05-16T02:11:35;5.80;99.90
11284;DHT22;5698;47.332;11.180;2023-05-16T02:14:04;5.80;99.90
11284;DHT22;5698;47.332;11.180;2023-05-16T02:16:31;5.80;99.90
11284;DHT22;5698;47.332;11.180;2023-05-16T02:18:58;5.80;99.90
11284;DHT22;5698;47.332;11.180;2023-05-16T02:21:25;5.80;99.90
11284;DHT22;5698;47.332;11.180;2023-05-16T02:23:52;5.80;99.90
11284;DHT22;5698;47.332;11.180;2023-05-16T02:26:19;5.80;99.90
11284;DHT22;5698;47.332;11.180;2023-05-16T02:28:46;5.80;99.90
11284;DHT22;5698;47.332;11.180;2023-05-16T02:31:26;5.80;99.90
11284;DHT22;5698;47.332;11.180;2023-05-16T02:33:53;5.80;99.90
11284;DHT22;5698;47.332;11.180;2023-05-16T02:36:20;5.90;99.90
11284;DHT22;5698;47.332;11.180;2023-05-16T02:38:47;5.90;99.90
11284;DHT22;5698;47.332;11.180;2023-05-16T02:41:14;5.90;99.90
11284;DHT22;5698;47.332;11.180;2023-05-16T02:43:41;5.90;99.90
11284;DHT22;5698;47.332;11.180;2023-05-16T02:46:20;5.90;99.90
11284;DHT22;5698;47.332;11.180;2023-05-16T02:48:48;5.90;99.90
11284;DHT22;5698;47.332;11.180;2023-05-16T02:51:16;5.90;99.90
11284;DHT22;5698;47.332;11.180;2023-05-16T02:53:43;5.90;99.90
11284;DHT22;5698;47.332;11.180;2023-05-16T02:56:10;5.90;99.90
11284;DHT22;5698;47.332;11.180;2023-05-16T02:58:37;6.00;99.90
11284;DHT22;5698;47.332;11.180;2023-05-16T03:01:04;6.00;99.90
11284;DHT22;5698;47.332;11.180;2023-05-16T03:03:31;6.00;99.90
11284;DHT22;5698;47.332;11.180;2023-05-16T03:06:01;6.00;99.90
11284;DHT22;5698;47.332;11.180;2023-05-16T03:08:28;6.10;99.90
11284;DHT22;5698;47.332;11.180;2023-05-16T03:10:55;6.10;99.90
11284;DHT22;5698;47.332;11.180;2023-05-16T03:13:22;6.10;99.90
11284;DHT22;5698;47.332;11.180;2023-05-16T03:15:49;6.10;99.90
11284;DHT22;5698;47.332;11.180;2023-05-16T03:18:16;6.10;99.90
11284;DHT22;5698;47.332;11.180;2023-05-16T03:20:43;6.10;99.90
11284;DHT22;5698;47.332;11.180;2023-05-16T03:23:12;6.00;99.90
11284;DHT22;5698;47.332;11.180;2023-05-16T03:25:39;6.00;99.90
11284;DHT22;5698;47.332;11.180;2023-05-16T03:28:07;6.00;99.90
11284;DHT22;5698;47.332;11.180;2023-05-16T03:30:35;6.00;99.90
11284;DHT22;5698;47.332;11.180;2023-05-16T03:33:02;6.00;99.90
11284;DHT22;5698;47.332;11.180;2023-05-16T03:35:30;6.00;99.90
11284;DHT22;5698;47.332;11.180;2023-05-16T03:37:57;6.00;99.90
11284;DHT22;5698;47.332;11.180;2023-05-16T03:40:26;6.00;99.90
11284;DHT22;5698;47.332;11.180;2023-05-16T03:42:53;6.00;99.90
11284;DHT22;5698;47.332;11.180;2023-05-16T03:45:20;6.10;99.90
11284;DHT22;5698;47.332;11.180;2023-05-16T03:47:47;6.10;99.90
11284;DHT22;5698;47.332;11.180;2023-05-16T03:50:15;6.10;99.90
11284;DHT22;5698;47.332;11.180;2023-05-16T03:52:42;6.10;99.90
11284;DHT22;5698;47.332;11.180;2023-05-16T03:55:09;6.10;99.90
11284;DHT22;5698;47.332;11.180;2023-05-16T03:57:40;6.10;99.90
11284;DHT22;5698;47.332;11.180;2023-05-16T04:00:09;6.10;99.90
11284;DHT22;5698;47.332;11.180;2023-05-16T04:02:37;6.20;99.90
11284;DHT22;5698;47.332;11.180;2023-05-16T04:05:07;6.20;99.90
11284;DHT22;5698;47.332;11.180;2023-05-16T04:07:34;6.20;99.90
11284;DHT22;5698;47.332;11.180;2023-05-16T04:10:03;6.10;99.90
11284;DHT22;5698;47.332;11.180;2023-05-16T04:12:31;6.10;99.90
11284;DHT22;5698;47.332;11.180;2023-05-16T04:14:59;6.20;99.90
11284;DHT22;5698;47.332;11.180;2023-05-16T04:17:26;6.20;99.90
11284;DHT22;5698;47.332;11.180;2023-05-16T04:19:53;6.20;99.90
11284;DHT22;5698;47.332;11.180;2023-05-16T04:22:20;6.20;99.90
11284;DHT22;5698;47.332;11.180;2023-05-16T04:24:47;6.20;99.90
11284;DHT22;5698;47.332;11.180;2023-05-16T04:27:14;6.20;99.90
11284;DHT22;5698;47.332;11.180;2023-05-16T04:29:41;6.20;99.90
11284;DHT22;5698;47.332;11.180;2023-05-16T04:32:10;6.20;99.90
11284;DHT22;5698;47.332;11.180;2023-05-16T04:34:37;6.20;99.90
11284;DHT22;5698;47.332;11.180;2023-05-16T04:37:04;6.30;99.90
11284;DHT22;5698;47.332;11.180;2023-05-16T04:39:32;6.30;99.90
11284;DHT22;5698;47.332;11.180;2023-05-16T04:41:59;6.20;99.90
11284;DHT22;5698;47.332;11.180;2023-05-16T04:44:26;6.20;99.90
11284;DHT22;5698;47.332;11.180;2023-05-16T04:46:53;6.20;99.90
11284;DHT22;5698;47.332;11.180;2023-05-16T04:49:21;6.20;99.90
11284;DHT22;5698;47.332;11.180;2023-05-16T04:51:49;6.20;99.90
11284;DHT22;5698;47.332;11.180;2023-05-16T04:54:16;6.20;99.90
11284;DHT22;5698;47.332;11.180;2023-05-16T04:56:42;6.20;99.90
11284;DHT22;5698;47.332;11.180;2023-05-16T04:59:09;6.20;99.90
11284;DHT22;5698;47.332;11.180;2023-05-16T05:01:36;6.20;99.90
11284;DHT22;5698;47.332;11.180;2023-05-16T05:04:04;6.30;99.90
11284;DHT22;5698;47.332;11.180;2023-05-16T05:06:32;6.30;99.90
11284;DHT22;5698;47.332;11.180;2023-05-16T05:08:59;6.30;99.90
11284;DHT22;5698;47.332;11.180;2023-05-16T05:11:26;6.30;99.90
11284;DHT22;5698;47.332;11.180;2023-05-16T05:13:53;6.30;99.90
11284;DHT22;5698;47.332;11.180;2023-05-16T05:16:20;6.30;99.90
11284;DHT22;5698;47.332;11.180;2023-05-16T05:18:47;6.30;99.90
11284;DHT22;5698;47.332;11.180;2023-05-16T05:21:14;6.20;99.90
11284;DHT22;5698;47.332;11.180;2023-05-16T05:23:42;6.20;99.90
11284;DHT22;5698;47.332;11.180;2023-05-16T05:26:10;6.30;99.90
11284;DHT22;5698;47.332;11.180;2023-05-16T05:28:37;6.30;99.90
11284;DHT22;5698;47.332;11.180;2023-05-16T05:31:04;6.20;99.90
11284;DHT22;5698;47.332;11.180;2023-05-16T05:33:32;6.20;99.90
11284;DHT22;5698;47.332;11.180;2023-05-16T05:35:59;6.30;99.90
11284;DHT22;5698;47.332;11.180;2023-05-16T05:38:26;6.20;99.90
11284;DHT22;5698;47.332;11.180;2023-05-16T05:40:55;6.20;99.90
11284;DHT22;5698;47.332;11.180;2023-05-16T05:43:22;6.30;99.90
11284;DHT22;5698;47.332;11.180;2023-05-16T05:45:49;6.30;99.90
11284;DHT22;5698;47.332;11.180;2023-05-16T05:48:16;6.20;99.90
11284;DHT22;5698;47.332;11.180;2023-05-16T05:50:43;6.30;99.90
11284;DHT22;5698;47.332;11.180;2023-05-16T05:53:10;6.30;99.90
11284;DHT22;5698;47.332;11.180;2023-05-16T05:55:37;6.30;99.90
11284;DHT22;5698;47.332;11.180;2023-05-16T05:58:07;6.30;99.90
11284;DHT22;5698;47.332;11.180;2023-05-16T06:00:34;6.40;99.90
11284;DHT22;5698;47.332;11.180;2023-05-16T06:03:01;6.40;99.90
11284;DHT22;5698;47.332;11.180;2023-05-16T06:05:28;6.40;99.90
11284;DHT22;5698;47.332;11.180;2023-05-16T06:07:55;6.40;99.90
11284;DHT22;5698;47.332;11.180;2023-05-16T06:10:22;6.50;99.90
11284;DHT22;5698;47.332;11.180;2023-05-16T06:12:49;6.50;99.90
11284;DHT22;5698;47.332;11.180;2023-05-16T06:15:18;6.60;99.90
11284;DHT22;5698;47.332;11.180;2023-05-16T06:17:45;6.60;99.90
11284;DHT22;5698;47.332;11.180;2023-05-16T06:20:12;6.60;99.90
11284;DHT22;5698;47.332;11.180;2023-05-16T06:22:39;6.70;99.90
11284;DHT22;5698;47.332;11.180;2023-05-16T06:25:06;6.70;99.90
11284;DHT22;5698;47.332;11.180;2023-05-16T06:27:33;6.70;99.90
11284;DHT22;5698;47.332;11.180;2023-05-16T06:30:00;6.80;99.90
11284;DHT22;5698;47.332;11.180;2023-05-16T06:32:29;6.70;99.90
11284;DHT22;5698;47.332;11.180;2023-05-16T06:34:56;6.70;99.90
11284;DHT22;5698;47.332;11.180;2023-05-16T06:37:23;6.70;99.90
11284;DHT22;5698;47.332;11.180;2023-05-16T06:39:50;6.70;99.90
11284;DHT22;5698;47.332;11.180;2023-05-16T06:42:17;6.70;99.90
11284;DHT22;5698;47.332;11.180;2023-05-16T06:44:45;6.80;99.90
11284;DHT22;5698;47.332;11.180;2023-05-16T06:47:12;6.80;99.90
11284;DHT22;5698;47.332;11.180;2023-05-16T06:49:40;6.80;99.90
11284;DHT22;5698;47.332;11.180;2023-05-16T06:52:07;6.80;99.90
11284;DHT22;5698;47.332;11.180;2023-05-16T06:54:34;6.80;99.90
11284;DHT22;5698;47.332;11.180;2023-05-16T06:57:01;6.80;99.90
11284;DHT22;5698;47.332;11.180;2023-05-16T06:59:29;6.80;99.90
11284;DHT22;5698;47.332;11.180;2023-05-16T07:01:56;6.90;99.90
11284;DHT22;5698;47.332;11.180;2023-05-16T07:04:23;7.00;99.90
11284;DHT22;5698;47.332;11.180;2023-05-16T07:06:51;7.00;99.90
11284;DHT22;5698;47.332;11.180;2023-05-16T07:09:19;7.10;99.90
11284;DHT22;5698;47.332;11.180;2023-05-16T07:11:46;7.10;99.90
11284;DHT22;5698;47.332;11.180;2023-05-16T07:14:13;7.10;99.90
11284;DHT22;5698;47.332;11.180;2023-05-16T07:16:40;7.20;99.90
11284;DHT22;5698;47.332;11.180;2023-05-16T07:19:07;7.20;99.90
11284;DHT22;5698;47.332;11.180;2023-05-16T07:21:34;7.30;99.90
11284;DHT22;5698;47.332;11.180;2023-05-16T07:24:03;7.30;99.90
11284;DHT22;5698;47.332;11.180;2023-05-16T07:26:31;7.30;99.90
11284;DHT22;5698;47.332;11.180;2023-05-16T07:28:58;7.40;99.90
11284;DHT22;5698;47.332;11.180;2023-05-16T07:31:27;7.40;99.90
11284;DHT22;5698;47.332;11.180;2023-05-16T07:33:54;7.40;99.90
11284;DHT22;5698;47.332;11.180;2023-05-16T07:36:21;7.40;99.90
11284;DHT22;5698;47.332;11.180;2023-05-16T07:38:48;7.40;99.90
11284;DHT22;5698;47.332;11.180;2023-05-16T07:41:16;7.40;99.90
11284;DHT22;5698;47.332;11.180;2023-05-16T07:43:43;7.30;99.90
11284;DHT22;5698;47.332;11.180;2023-05-16T07:46:10;7.30;99.90
11284;DHT22;5698;47.332;11.180;2023-05-16T07:48:38;7.40;99.90
11284;DHT22;5698;47.332;11.180;2023-05-16T07:51:05;7.40;99.90
11284;DHT22;5698;47.332;11.180;2023-05-16T07:53:33;7.30;99.90
11284;DHT22;5698;47.332;11.180;2023-05-16T07:56:00;7.20;99.90
11284;DHT22;5698;47.332;11.180;2023-05-16T07:58:28;7.20;99.90
11284;DHT22;5698;47.332;11.180;2023-05-16T08:00:56;7.20;99.90
11284;DHT22;5698;47.332;11.180;2023-05-16T08:03:23;7.10;99.90
11284;DHT22;5698;47.332;11.180;2023-05-16T08:05:50;7.20;99.90
11284;DHT22;5698;47.332;11.180;2023-05-16T08:08:17;7.20;99.90
11284;DHT22;5698;47.332;11.180;2023-05-16T08:10:44;7.20;99.90
11284;DHT22;5698;47.332;11.180;2023-05-16T08:13:11;7.30;99.90
11284;DHT22;5698;47.332;11.180;2023-05-16T08:15:40;7.30;99.90
11284;DHT22;5698;47.332;11.180;2023-05-16T08:18:12;7.30;99.90
11284;DHT22;5698;47.332;11.180;2023-05-16T08:20:40;7.30;99.90
11284;DHT22;5698;47.332;11.180;2023-05-16T08:23:07;7.30;99.90
11284;DHT22;5698;47.332;11.180;2023-05-16T08:25:34;7.30;99.90
11284;DHT22;5698;47.332;11.180;2023-05-16T08:28:01;7.30;99.90
11284;DHT22;5698;47.332;11.180;2023-05-16T08:30:28;7.30;99.90
11284;DHT22;5698;47.332;11.180;2023-05-16T08:32:56;7.30;99.90
11284;DHT22;5698;47.332;11.180;2023-05-16T08:35:23;7.40;99.90
11284;DHT22;5698;47.332;11.180;2023-05-16T08:37:50;7.50;99.90
11284;DHT22;5698;47.332;11.180;2023-05-16T08:40:18;7.60;99.90
11284;DHT22;5698;47.332;11.180;2023-05-16T08:42:45;7.70;99.90
11284;DHT22;5698;47.332;11.180;2023-05-16T08:45:12;7.80;99.90
11284;DHT22;5698;47.332;11.180;2023-05-16T08:47:41;7.90;99.90
11284;DHT22;5698;47.332;11.180;2023-05-16T08:50:11;8.00;99.90
11284;DHT22;5698;47.332;11.180;2023-05-16T08:52:38;8.10;99.90
11284;DHT22;5698;47.332;11.180;2023-05-16T08:55:08;8.20;99.90
11284;DHT22;5698;47.332;11.180;2023-05-16T08:57:37;8.30;99.90
11284;DHT22;5698;47.332;11.180;2023-05-16T09:00:06;8.50;99.90
11284;DHT22;5698;47.332;11.180;2023-05-16T09:02:37;8.60;99.90
11284;DHT22;5698;47.332;11.180;2023-05-16T09:05:05;8.70;99.90
11284;DHT22;5698;47.332;11.180;2023-05-16T09:07:35;8.80;99.90
11284;DHT22;5698;47.332;11.180;2023-05-16T09:10:03;8.90;99.90
11284;DHT22;5698;47.332;11.180;2023-05-16T09:12:31;9.00;99.90
11284;DHT22;5698;47.332;11.180;2023-05-16T09:14:59;9.10;99.90
11284;DHT22;5698;47.332;11.180;2023-05-16T09:17:34;9.20;99.90
11284;DHT22;5698;47.332;11.180;2023-05-16T09:20:08;9.20;99.90
11284;DHT22;5698;47.332;11.180;2023-05-16T09:22:37;9.30;99.90
11284;DHT22;5698;47.332;11.180;2023-05-16T09:25:04;9.40;99.90
11284;DHT22;5698;47.332;11.180;2023-05-16T09:27:32;9.50;99.90
11284;DHT22;5698;47.332;11.180;2023-05-16T09:29:59;9.50;99.90
11284;DHT22;5698;47.332;11.180;2023-05-16T09:32:26;9.60;99.90
11284;DHT22;5698;47.332;11.180;2023-05-16T09:34:54;9.50;99.90
11284;DHT22;5698;47.332;11.180;2023-05-16T09:37:23;9.50;99.90
11284;DHT22;5698;47.332;11.180;2023-05-16T09:39:53;9.40;99.90
11284;DHT22;5698;47.332;11.180;2023-05-16T09:42:20;9.40;99.90
11284;DHT22;5698;47.332;11.180;2023-05-16T09:44:49;9.30;99.90
11284;DHT22;5698;47.332;11.180;2023-05-16T09:47:16;9.40;99.90
11284;DHT22;5698;47.332;11.180;2023-05-16T09:49:44;9.20;99.90
11284;DHT22;5698;47.332;11.180;2023-05-16T09:52:12;9.20;99.90
11284;DHT22;5698;47.332;11.180;2023-05-16T09:54:40;9.10;99.90
11284;DHT22;5698;47.332;11.180;2023-05-16T09:57:08;9.10;99.90
11284;DHT22;5698;47.332;11.180;2023-05-16T09:59:36;9.10;99.90
11284;DHT22;5698;47.332;11.180;2023-05-16T10:02:05;9.00;99.90
11284;DHT22;5698;47.332;11.180;2023-05-16T10:04:33;8.90;99.90
11284;DHT22;5698;47.332;11.180;2023-05-16T10:07:01;9.00;99.90
11284;DHT22;5698;47.332;11.180;2023-05-16T10:09:31;9.00;99.90
11284;DHT22;5698;47.332;11.180;2023-05-16T10:12:00;9.00;99.90
11284;DHT22;5698;47.332;11.180;2023-05-16T10:14:34;9.00;99.90
11284;DHT22;5698;47.332;11.180;2023-05-16T10:17:02;9.10;99.90
11284;DHT22;5698;47.332;11.180;2023-05-16T10:19:31;9.10;99.90
11284;DHT22;5698;47.332;11.180;2023-05-16T10:21:59;9.20;99.90
11284;DHT22;5698;47.332;11.180;2023-05-16T10:24:33;9.10;99.90
11284;DHT22;5698;47.332;11.180;2023-05-16T10:27:01;9.10;99.90
11284;DHT22;5698;47.332;11.180;2023-05-16T10:29:31;9.00;99.90
11284;DHT22;5698;47.332;11.180;2023-05-16T10:31:58;8.90;99.90
11284;DHT22;5698;47.332;11.180;2023-05-16T10:34:25;8.90;99.90
11284;DHT22;5698;47.332;11.180;2023-05-16T10:36:53;8.80;99.90
11284;DHT22;5698;47.332;11.180;2023-05-16T10:39:20;8.80;99.90
11284;DHT22;5698;47.332;11.180;2023-05-16T10:41:48;8.70;99.90
11284;DHT22;5698;47.332;11.180;2023-05-16T10:44:16;8.60;99.90
11284;DHT22;5698;47.332;11.180;2023-05-16T10:46:46;8.70;99.90
11284;DHT22;5698;47.332;11.180;2023-05-16T10:49:20;8.70;99.90
11284;DHT22;5698;47.332;11.180;2023-05-16T10:52:02;8.70;99.90
11284;DHT22;5698;47.332;11.180;2023-05-16T10:54:34;8.70;99.90
11284;DHT22;5698;47.332;11.180;2023-05-16T10:57:06;8.70;99.90
11284;DHT22;5698;47.332;11.180;2023-05-16T10:59:42;8.60;99.90
11284;DHT22;5698;47.332;11.180;2023-05-16T11:02:24;8.50;99.90
11284;DHT22;5698;47.332;11.180;2023-05-16T11:04:54;8.50;99.90
11284;DHT22;5698;47.332;11.180;2023-05-16T11:07:23;8.50;99.90
11284;DHT22;5698;47.332;11.180;2023-05-16T11:10:08;8.50;99.90
11284;DHT22;5698;47.332;11.180;2023-05-16T11:12:43;8.50;99.90
11284;DHT22;5698;47.332;11.180;2023-05-16T11:15:18;8.50;99.90
11284;DHT22;5698;47.332;11.180;2023-05-16T11:17:47;8.40;99.90
11284;DHT22;5698;47.332;11.180;2023-05-16T11:20:32;8.40;99.90
11284;DHT22;5698;47.332;11.180;2023-05-16T11:23:33;8.30;99.90
11284;DHT22;5698;47.332;11.180;2023-05-16T11:26:00;8.20;99.90
11284;DHT22;5698;47.332;11.180;2023-05-16T11:28:29;8.20;99.90
11284;DHT22;5698;47.332;11.180;2023-05-16T11:30:57;8.20;99.90
11284;DHT22;5698;47.332;11.180;2023-05-16T11:33:26;8.10;99.90
11284;DHT22;5698;47.332;11.180;2023-05-16T11:36:04;8.10;99.90
11284;DHT22;5698;47.332;11.180;2023-05-16T11:38:31;8.10;99.90
11284;DHT22;5698;47.332;11.180;2023-05-16T11:41:03;8.20;99.90
11284;DHT22;5698;47.332;11.180;2023-05-16T11:43:37;8.20;99.90
11284;DHT22;5698;47.332;11.180;2023-05-16T11:46:04;8.20;99.90
11284;DHT22;5698;47.332;11.180;2023-05-16T11:48:34;8.30;99.90
11284;DHT22;5698;47.332;11.180;2023-05-16T11:51:01;8.30;99.90
11284;DHT22;5698;47.332;11.180;2023-05-16T11:53:28;8.30;99.90
11284;DHT22;5698;47.332;11.180;2023-05-16T11:55:55;8.50;99.90
11284;DHT22;5698;47.332;11.180;2023-05-16T11:58:24;8.60;99.90
11284;DHT22;5698;47.332;11.180;2023-05-16T12:00:52;8.70;99.90
11284;DHT22;5698;47.332;11.180;2023-05-16T12:03:20;8.80;99.90
11284;DHT22;5698;47.332;11.180;2023-05-16T12:05:53;9.00;99.90
11284;DHT22;5698;47.332;11.180;2023-05-16T12:08:22;9.10;99.90
11284;DHT22;5698;47.332;11.180;2023-05-16T12:10:50;9.10;99.90
11284;DHT22;5698;47.332;11.180;2023-05-16T12:13:18;9.20;99.90
11284;DHT22;5698;47.332;11.180;2023-05-16T12:15:45;9.30;99.90
11284;DHT22;5698;47.332;11.180;2023-05-16T12:18:13;9.30;99.90
11284;DHT22;5698;47.332;11.180;2023-05-16T12:20:42;9.50;99.90
11284;DHT22;5698;47.332;11.180;2023-05-16T12:23:11;9.50;99.90
11284;DHT22;5698;47.332;11.180;2023-05-16T12:25:43;9.60;99.90
11284;DHT22;5698;47.332;11.180;2023-05-16T12:28:11;9.70;99.90
11284;DHT22;5698;47.332;11.180;2023-05-16T12:30:40;9.70;99.90
11284;DHT22;5698;47.332;11.180;2023-05-16T12:33:08;9.70;99.90
11284;DHT22;5698;47.332;11.180;2023-05-16T12:35:38;9.70;99.90
11284;DHT22;5698;47.332;11.180;2023-05-16T12:38:05;9.80;99.90
11284;DHT22;5698;47.332;11.180;2023-05-16T12:40:35;9.80;99.90
11284;DHT22;5698;47.332;11.180;2023-05-16T12:43:04;9.80;99.90
11284;DHT22;5698;47.332;11.180;2023-05-16T12:45:32;9.90;99.90
11284;DHT22;5698;47.332;11.180;2023-05-16T12:48:04;9.90;99.90
11284;DHT22;5698;47.332;11.180;2023-05-16T12:50:32;9.90;99.90
11284;DHT22;5698;47.332;11.180;2023-05-16T12:53:01;10.00;99.90
11284;DHT22;5698;47.332;11.180;2023-05-16T12:55:28;10.00;99.90
11284;DHT22;5698;47.332;11.180;2023-05-16T12:57:56;10.00;99.90
11284;DHT22;5698;47.332;11.180;2023-05-16T13:00:23;9.90;99.90
11284;DHT22;5698;47.332;11.180;2023-05-16T13:02:50;10.00;99.90
11284;DHT22;5698;47.332;11.180;2023-05-16T13:05:17;10.00;99.90
11284;DHT22;5698;47.332;11.180;2023-05-16T13:07:46;10.00;99.90
11284;DHT22;5698;47.332;11.180;2023-05-16T13:10:17;9.90;99.90
11284;DHT22;5698;47.332;11.180;2023-05-16T13:12:44;9.80;99.90
11284;DHT22;5698;47.332;11.180;2023-05-16T13:15:13;9.80;99.90
11284;DHT22;5698;47.332;11.180;2023-05-16T13:17:41;9.90;99.90
11284;DHT22;5698;47.332;11.180;2023-05-16T13:20:09;9.80;99.90
11284;DHT22;5698;47.332;11.180;2023-05-16T13:22:39;9.80;99.90
11284;DHT22;5698;47.332;11.180;2023-05-16T13:25:07;9.90;99.90
11284;DHT22;5698;47.332;11.180;2023-05-16T13:27:35;9.90;99.90
11284;DHT22;5698;47.332;11.180;2023-05-16T13:30:02;9.90;99.90
11284;DHT22;5698;47.332;11.180;2023-05-16T13:32:31;9.90;99.90
11284;DHT22;5698;47.332;11.180;2023-05-16T13:34:58;9.90;99.90
11284;DHT22;5698;47.332;11.180;2023-05-16T13:37:25;10.00;99.90
11284;DHT22;5698;47.332;11.180;2023-05-16T13:39:52;10.00;99.90
11284;DHT22;5698;47.332;11.180;2023-05-16T13:42:20;10.00;99.90
11284;DHT22;5698;47.332;11.180;2023-05-16T13:44:47;10.00;99.90
11284;DHT22;5698;47.332;11.180;2023-05-16T13:47:14;9.90;99.90
11284;DHT22;5698;47.332;11.180;2023-05-16T13:49:43;10.00;99.90
11284;DHT22;5698;47.332;11.180;2023-05-16T13:52:10;10.00;99.90
11284;DHT22;5698;47.332;11.180;2023-05-16T13:54:37;10.00;99.90
11284;DHT22;5698;47.332;11.180;2023-05-16T13:57:05;10.00;99.90
11284;DHT22;5698;47.332;11.180;2023-05-16T13:59:33;10.00;99.90
11284;DHT22;5698;47.332;11.180;2023-05-16T14:02:00;10.00;99.90
11284;DHT22;5698;47.332;11.180;2023-05-16T14:04:26;9.90;99.90
11284;DHT22;5698;47.332;11.180;2023-05-16T14:06:55;9.80;99.90
11284;DHT22;5698;47.332;11.180;2023-05-16T14:09:22;9.70;99.90
11284;DHT22;5698;47.332;11.180;2023-05-16T14:11:49;9.60;99.90
11284;DHT22;5698;47.332;11.180;2023-05-16T14:14:16;9.50;99.90
11284;DHT22;5698;47.332;11.180;2023-05-16T14:16:43;9.50;99.90
11284;DHT22;5698;47.332;11.180;2023-05-16T14:19:10;9.40;99.90
11284;DHT22;5698;47.332;11.180;2023-05-16T14:21:37;9.30;99.90
11284;DHT22;5698;47.332;11.180;2023-05-16T14:24:06;9.20;99.90
11284;DHT22;5698;47.332;11.180;2023-05-16T14:26:33;9.20;99.90
11284;DHT22;5698;47.332;11.180;2023-05-16T14:29:00;9.20;99.90
11284;DHT22;5698;47.332;11.180;2023-05-16T14:31:28;9.30;99.90
11284;DHT22;5698;47.332;11.180;2023-05-16T14:33:55;9.20;99.90
11284;DHT22;5698;47.332;11.180;2023-05-16T14:36:23;9.10;99.90
11284;DHT22;5698;47.332;11.180;2023-05-16T14:38:50;9.00;99.90
11284;DHT22;5698;47.332;11.180;2023-05-16T14:41:18;9.00;99.90
11284;DHT22;5698;47.332;11.180;2023-05-16T14:43:45;9.10;99.90
11284;DHT22;5698;47.332;11.180;2023-05-16T14:46:12;9.10;99.90
11284;DHT22;5698;47.332;11.180;2023-05-16T14:48:39;9.20;99.90
11284;DHT22;5698;47.332;11.180;2023-05-16T14:51:06;9.20;99.90
11284;DHT22;5698;47.332;11.180;2023-05-16T14:53:33;9.20;99.90
11284;DHT22;5698;47.332;11.180;2023-05-16T14:56:01;9.20;99.90
11284;DHT22;5698;47.332;11.180;2023-05-16T14:58:30;9.20;99.90
11284;DHT22;5698;47.332;11.180;2023-05-16T15:00:57;9.20;99.90
11284;DHT22;5698;47.332;11.180;2023-05-16T15:03:24;9.20;99.90
11284;DHT22;5698;47.332;11.180;2023-05-16T15:05:51;9.20;99.90
11284;DHT22;5698;47.332;11.180;2023-05-16T15:08:19;9.10;99.90
11284;DHT22;5698;47.332;11.180;2023-05-16T15:10:46;9.10;99.90
11284;DHT22;5698;47.332;11.180;2023-05-16T15:13:13;9.10;99.90
11284;DHT22;5698;47.332;11.180;2023-05-16T15:15:42;9.10;99.90
11284;DHT22;5698;47.332;11.180;2023-05-16T15:18:09;9.10;99.90
11284;DHT22;5698;47.332;11.180;2023-05-16T15:20:36;9.10;99.90
11284;DHT22;5698;47.332;11.180;2023-05-16T15:23:03;9.00;99.90
11284;DHT22;5698;47.332;11.180;2023-05-16T15:25:30;9.00;99.90
11284;DHT22;5698;47.332;11.180;2023-05-16T15:27:57;8.90;99.90
11284;DHT22;5698;47.332;11.180;2023-05-16T15:30:24;8.90;99.90
11284;DHT22;5698;47.332;11.180;2023-05-16T15:32:52;8.90;99.90
11284;DHT22;5698;47.332;11.180;2023-05-16T15:35:19;8.90;99.90
11284;DHT22;5698;47.332;11.180;2023-05-16T15:37:46;8.90;99.90
11284;DHT22;5698;47.332;11.180;2023-05-16T15:40:13;8.90;99.90
11284;DHT22;5698;47.332;11.180;2023-05-16T15:42:40;8.90;99.90
11284;DHT22;5698;47.332;11.180;2023-05-16T15:45:09;8.90;99.90
11284;DHT22;5698;47.332;11.180;2023-05-16T15:47:37;8.90;99.90
11284;DHT22;5698;47.332;11.180;2023-05-16T15:50:06;8.90;99.90
11284;DHT22;5698;47.332;11.180;2023-05-16T15:52:33;8.90;99.90